sensor_id;sensor_type;location;lat;lon;timestamp;pressure;altitude;pressure_sealevel;temperature;humidity
58967;BME280;44744;51.894;5.080;2022-09-01T00:00:48;102250.63;;;17.41;52.19
58967;BME280;44744;51.894;5.080;2022-09-01T00:01:50;102249.13;;;17.40;52.19
58967;BME280;44744;51.894;5.080;2022-09-01T00:02:51;102246.70;;;17.38;52.23
58967;BME280;44744;51.894;5.080;2022-09-01T00:03:56;102244.43;;;17.38;52.31
58967;BME280;44744;51.894;5.080;2022-09-01T00:04:57;102247.69;;;17.37;52.33
58967;BME280;44744;51.894;5.080;2022-09-01T00:05:57;102248.50;;;17.35;52.37
58967;BME280;44744;51.894;5.080;2022-09-01T00:07:00;102250.39;;;17.34;52.48
58967;BME280;44744;51.894;5.080;2022-09-01T00:08:00;102245.38;;;17.34;52.59
58967;BME280;44744;51.894;5.080;2022-09-01T00:09:21;102248.42;;;17.33;52.58
58967;BME280;44744;51.894;5.080;2022-09-01T00:10:50;102249.79;;;17.32;52.59
58967;BME280;44744;51.894;5.080;2022-09-01T00:12:04;102247.73;;;17.30;52.59
58967;BME280;44744;51.894;5.080;2022-09-01T00:13:16;102246.85;;;17.30;52.68
58967;BME280;44744;51.894;5.080;2022-09-01T00:14:39;102251.73;;;17.29;52.75
58967;BME280;44744;51.894;5.080;2022-09-01T00:15:46;102250.20;;;17.28;52.74
58967;BME280;44744;51.894;5.080;2022-09-01T00:17:11;102245.70;;;17.29;52.82
58967;BME280;44744;51.894;5.080;2022-09-01T00:18:12;102250.55;;;17.28;52.77
58967;BME280;44744;51.894;5.080;2022-09-01T00:19:12;102247.71;;;17.28;52.96
58967;BME280;44744;51.894;5.080;2022-09-01T00:20:13;102249.55;;;17.27;53.15
58967;BME280;44744;51.894;5.080;2022-09-01T00:21:13;102247.38;;;17.25;53.06
58967;BME280;44744;51.894;5.080;2022-09-01T00:22:13;102246.52;;;17.24;53.08
58967;BME280;44744;51.894;5.080;2022-09-01T00:23:14;102243.75;;;17.22;53.24
58967;BME280;44744;51.894;5.080;2022-09-01T00:24:16;102241.58;;;17.20;53.22
58967;BME280;44744;51.894;5.080;2022-09-01T00:25:18;102240.70;;;17.20;53.33
58967;BME280;44744;51.894;5.080;2022-09-01T00:26:18;102239.70;;;17.18;53.42
58967;BME280;44744;51.894;5.080;2022-09-01T00:27:21;102240.48;;;17.17;53.42
58967;BME280;44744;51.894;5.080;2022-09-01T00:28:22;102239.04;;;17.17;53.61
58967;BME280;44744;51.894;5.080;2022-09-01T00:29:22;102240.27;;;17.15;53.88
58967;BME280;44744;51.894;5.080;2022-09-01T00:30:24;102238.29;;;17.12;53.74
58967;BME280;44744;51.894;5.080;2022-09-01T00:31:24;102235.73;;;17.10;53.86
58967;BME280;44744;51.894;5.080;2022-09-01T00:32:26;102234.97;;;17.08;53.87
58967;BME280;44744;51.894;5.080;2022-09-01T00:33:27;102238.02;;;17.08;53.89
58967;BME280;44744;51.894;5.080;2022-09-01T00:34:27;102237.14;;;17.07;53.97
58967;BME280;44744;51.894;5.080;2022-09-01T00:35:27;102235.02;;;17.07;53.98
58967;BME280;44744;51.894;5.080;2022-09-01T00:36:28;102235.58;;;17.06;54.10
58967;BME280;44744;51.894;5.080;2022-09-01T00:37:28;102238.06;;;17.07;54.06
58967;BME280;44744;51.894;5.080;2022-09-01T00:38:28;102231.49;;;17.06;53.98
58967;BME280;44744;51.894;5.080;2022-09-01T00:39:29;102234.29;;;17.07;54.07
58967;BME280;44744;51.894;5.080;2022-09-01T00:40:32;102232.29;;;17.08;54.10
58967;BME280;44744;51.894;5.080;2022-09-01T00:41:35;102232.92;;;17.06;54.27
58967;BME280;44744;51.894;5.080;2022-09-01T00:42:39;102230.44;;;17.03;54.18
58967;BME280;44744;51.894;5.080;2022-09-01T00:43:43;102227.65;;;17.02;54.12
58967;BME280;44744;51.894;5.080;2022-09-01T00:44:44;102229.23;;;17.02;54.30
58967;BME280;44744;51.894;5.080;2022-09-01T00:45:45;102227.30;;;17.01;54.32
58967;BME280;44744;51.894;5.080;2022-09-01T00:46:47;102226.95;;;17.01;54.34
58967;BME280;44744;51.894;5.080;2022-09-01T00:47:48;102223.51;;;16.99;54.45
58967;BME280;44744;51.894;5.080;2022-09-01T00:48:59;102223.64;;;16.97;54.44
58967;BME280;44744;51.894;5.080;2022-09-01T00:50:02;102223.59;;;16.95;54.52
58967;BME280;44744;51.894;5.080;2022-09-01T00:51:05;102219.85;;;16.92;54.58
58967;BME280;44744;51.894;5.080;2022-09-01T00:52:10;102225.05;;;16.92;54.71
58967;BME280;44744;51.894;5.080;2022-09-01T00:53:12;102220.89;;;16.89;54.76
58967;BME280;44744;51.894;5.080;2022-09-01T00:54:27;102219.79;;;16.86;54.80
58967;BME280;44744;51.894;5.080;2022-09-01T00:55:30;102220.77;;;16.85;54.81
58967;BME280;44744;51.894;5.080;2022-09-01T00:56:33;102218.93;;;16.83;54.79
58967;BME280;44744;51.894;5.080;2022-09-01T00:57:34;102216.45;;;16.82;54.89
58967;BME280;44744;51.894;5.080;2022-09-01T00:58:35;102217.77;;;16.81;55.01
58967;BME280;44744;51.894;5.080;2022-09-01T00:59:52;102213.34;;;16.80;54.95
58967;BME280;44744;51.894;5.080;2022-09-01T01:00:54;102216.78;;;16.80;54.97
58967;BME280;44744;51.894;5.080;2022-09-01T01:01:57;102218.98;;;16.79;55.14
58967;BME280;44744;51.894;5.080;2022-09-01T01:02:58;102218.35;;;16.78;55.23
58967;BME280;44744;51.894;5.080;2022-09-01T01:03:58;102218.41;;;16.76;55.19
58967;BME280;44744;51.894;5.080;2022-09-01T01:04:58;102218.11;;;16.75;55.23
58967;BME280;44744;51.894;5.080;2022-09-01T01:06:02;102217.77;;;16.75;55.28
58967;BME280;44744;51.894;5.080;2022-09-01T01:07:04;102216.48;;;16.76;55.26
58967;BME280;44744;51.894;5.080;2022-09-01T01:08:05;102219.67;;;16.76;55.26
58967;BME280;44744;51.894;5.080;2022-09-01T01:09:06;102217.18;;;16.76;55.21
58967;BME280;44744;51.894;5.080;2022-09-01T01:10:08;102215.80;;;16.75;55.31
58967;BME280;44744;51.894;5.080;2022-09-01T01:11:12;102213.89;;;16.74;55.24
58967;BME280;44744;51.894;5.080;2022-09-01T01:12:13;102217.10;;;16.75;55.27
58967;BME280;44744;51.894;5.080;2022-09-01T01:13:15;102216.22;;;16.74;55.26
58967;BME280;44744;51.894;5.080;2022-09-01T01:14:16;102216.79;;;16.73;55.34
58967;BME280;44744;51.894;5.080;2022-09-01T01:15:18;102215.37;;;16.73;55.32
58967;BME280;44744;51.894;5.080;2022-09-01T01:16:20;102218.23;;;16.73;55.44
58967;BME280;44744;51.894;5.080;2022-09-01T01:17:24;102215.88;;;16.71;55.38
58967;BME280;44744;51.894;5.080;2022-09-01T01:18:24;102218.42;;;16.70;55.41
58967;BME280;44744;51.894;5.080;2022-09-01T01:20:46;102214.73;;;16.66;55.48
58967;BME280;44744;51.894;5.080;2022-09-01T01:21:47;102217.01;;;16.64;55.55
58967;BME280;44744;51.894;5.080;2022-09-01T01:24:03;102218.53;;;16.62;55.45
58967;BME280;44744;51.894;5.080;2022-09-01T01:25:06;102217.11;;;16.62;55.47
58967;BME280;44744;51.894;5.080;2022-09-01T01:26:09;102215.36;;;16.62;55.55
58967;BME280;44744;51.894;5.080;2022-09-01T01:27:09;102216.11;;;16.61;55.53
58967;BME280;44744;51.894;5.080;2022-09-01T01:28:17;102216.38;;;16.59;55.54
58967;BME280;44744;51.894;5.080;2022-09-01T01:29:18;102220.50;;;16.59;55.63
58967;BME280;44744;51.894;5.080;2022-09-01T01:30:19;102217.71;;;16.58;55.64
58967;BME280;44744;51.894;5.080;2022-09-01T01:31:20;102215.71;;;16.55;55.69
58967;BME280;44744;51.894;5.080;2022-09-01T01:32:20;102215.14;;;16.53;55.83
58967;BME280;44744;51.894;5.080;2022-09-01T01:33:23;102210.45;;;16.51;55.82
58967;BME280;44744;51.894;5.080;2022-09-01T01:34:27;102212.77;;;16.51;55.96
58967;BME280;44744;51.894;5.080;2022-09-01T01:35:27;102210.70;;;16.50;55.98
58967;BME280;44744;51.894;5.080;2022-09-01T01:36:31;102213.45;;;16.48;56.02
58967;BME280;44744;51.894;5.080;2022-09-01T01:37:34;102213.91;;;16.46;55.98
58967;BME280;44744;51.894;5.080;2022-09-01T01:38:35;102210.77;;;16.45;56.07
58967;BME280;44744;51.894;5.080;2022-09-01T01:39:35;102210.27;;;16.44;56.15
58967;BME280;44744;51.894;5.080;2022-09-01T01:40:36;102209.91;;;16.45;56.14
58967;BME280;44744;51.894;5.080;2022-09-01T01:41:43;102212.71;;;16.43;56.16
58967;BME280;44744;51.894;5.080;2022-09-01T01:42:46;102210.73;;;16.40;56.22
58967;BME280;44744;51.894;5.080;2022-09-01T01:43:49;102211.62;;;16.36;56.25
58967;BME280;44744;51.894;5.080;2022-09-01T01:44:49;102211.54;;;16.35;56.20
58967;BME280;44744;51.894;5.080;2022-09-01T01:45:52;102212.36;;;16.33;56.25
58967;BME280;44744;51.894;5.080;2022-09-01T01:46:53;102207.98;;;16.32;56.25
58967;BME280;44744;51.894;5.080;2022-09-01T01:47:54;102205.73;;;16.30;56.47
58967;BME280;44744;51.894;5.080;2022-09-01T01:49:04;102208.93;;;16.27;56.45
58967;BME280;44744;51.894;5.080;2022-09-01T01:50:07;102207.86;;;16.24;56.53
58967;BME280;44744;51.894;5.080;2022-09-01T01:51:11;102213.45;;;16.23;56.54
58967;BME280;44744;51.894;5.080;2022-09-01T01:52:13;102209.45;;;16.25;56.63
58967;BME280;44744;51.894;5.080;2022-09-01T01:53:14;102209.81;;;16.22;56.67
58967;BME280;44744;51.894;5.080;2022-09-01T01:54:14;102210.23;;;16.20;56.72
58967;BME280;44744;51.894;5.080;2022-09-01T01:55:15;102210.48;;;16.19;56.76
58967;BME280;44744;51.894;5.080;2022-09-01T01:56:15;102210.38;;;16.18;56.77
58967;BME280;44744;51.894;5.080;2022-09-01T01:57:16;102209.59;;;16.19;56.75
58967;BME280;44744;51.894;5.080;2022-09-01T01:58:17;102212.08;;;16.19;56.74
58967;BME280;44744;51.894;5.080;2022-09-01T01:59:18;102214.58;;;16.19;56.79
58967;BME280;44744;51.894;5.080;2022-09-01T02:00:22;102213.36;;;16.18;56.85
58967;BME280;44744;51.894;5.080;2022-09-01T02:01:24;102213.45;;;16.17;56.81
58967;BME280;44744;51.894;5.080;2022-09-01T02:02:25;102215.13;;;16.16;56.89
58967;BME280;44744;51.894;5.080;2022-09-01T02:03:28;102215.02;;;16.14;56.86
58967;BME280;44744;51.894;5.080;2022-09-01T02:04:35;102212.71;;;16.14;56.92
58967;BME280;44744;51.894;5.080;2022-09-01T02:05:36;102212.86;;;16.12;56.96
58967;BME280;44744;51.894;5.080;2022-09-01T02:06:37;102214.70;;;16.11;56.91
58967;BME280;44744;51.894;5.080;2022-09-01T02:07:37;102213.29;;;16.11;56.98
58967;BME280;44744;51.894;5.080;2022-09-01T02:08:48;102211.68;;;16.11;57.06
58967;BME280;44744;51.894;5.080;2022-09-01T02:09:54;102213.31;;;16.10;57.00
58967;BME280;44744;51.894;5.080;2022-09-01T02:10:57;102217.52;;;16.08;57.11
58967;BME280;44744;51.894;5.080;2022-09-01T02:12:20;102218.65;;;16.08;57.10
58967;BME280;44744;51.894;5.080;2022-09-01T02:13:23;102213.76;;;16.05;57.07
58967;BME280;44744;51.894;5.080;2022-09-01T02:15:52;102209.73;;;16.00;57.18
58967;BME280;44744;51.894;5.080;2022-09-01T02:18:25;102212.45;;;15.99;57.19
58967;BME280;44744;51.894;5.080;2022-09-01T02:19:28;102210.79;;;15.98;57.24
58967;BME280;44744;51.894;5.080;2022-09-01T02:20:31;102208.36;;;15.96;57.28
58967;BME280;44744;51.894;5.080;2022-09-01T02:21:34;102212.60;;;15.97;57.31
58967;BME280;44744;51.894;5.080;2022-09-01T02:22:34;102211.18;;;15.97;57.30
58967;BME280;44744;51.894;5.080;2022-09-01T02:23:36;102212.05;;;15.98;57.37
58967;BME280;44744;51.894;5.080;2022-09-01T02:24:37;102215.41;;;15.98;57.62
58967;BME280;44744;51.894;5.080;2022-09-01T02:25:39;102211.92;;;15.97;57.47
58967;BME280;44744;51.894;5.080;2022-09-01T02:26:43;102213.92;;;15.96;57.48
58967;BME280;44744;51.894;5.080;2022-09-01T02:27:44;102211.81;;;15.95;57.56
58967;BME280;44744;51.894;5.080;2022-09-01T02:28:46;102212.23;;;15.94;57.60
58967;BME280;44744;51.894;5.080;2022-09-01T02:29:46;102212.02;;;15.95;57.48
58967;BME280;44744;51.894;5.080;2022-09-01T02:30:51;102211.14;;;15.95;57.52
58967;BME280;44744;51.894;5.080;2022-09-01T02:31:52;102208.52;;;15.94;57.46
58967;BME280;44744;51.894;5.080;2022-09-01T02:32:52;102208.35;;;15.94;57.52
58967;BME280;44744;51.894;5.080;2022-09-01T02:33:53;102206.55;;;15.94;57.54
58967;BME280;44744;51.894;5.080;2022-09-01T02:34:54;102210.59;;;15.95;57.54
58967;BME280;44744;51.894;5.080;2022-09-01T02:35:57;102205.30;;;15.94;57.57
58967;BME280;44744;51.894;5.080;2022-09-01T02:36:58;102205.06;;;15.95;57.61
58967;BME280;44744;51.894;5.080;2022-09-01T02:38:02;102204.79;;;15.94;57.66
58967;BME280;44744;51.894;5.080;2022-09-01T02:39:03;102203.84;;;15.91;57.59
58967;BME280;44744;51.894;5.080;2022-09-01T02:40:05;102200.13;;;15.88;57.71
58967;BME280;44744;51.894;5.080;2022-09-01T02:41:09;102198.62;;;15.86;57.85
58967;BME280;44744;51.894;5.080;2022-09-01T02:42:09;102201.55;;;15.84;57.78
58967;BME280;44744;51.894;5.080;2022-09-01T02:43:10;102198.86;;;15.84;57.92
58967;BME280;44744;51.894;5.080;2022-09-01T02:44:10;102198.75;;;15.83;57.86
58967;BME280;44744;51.894;5.080;2022-09-01T02:45:11;102197.08;;;15.81;58.05
58967;BME280;44744;51.894;5.080;2022-09-01T02:46:12;102195.77;;;15.79;58.09
58967;BME280;44744;51.894;5.080;2022-09-01T02:47:12;102197.40;;;15.78;58.07
58967;BME280;44744;51.894;5.080;2022-09-01T02:48:13;102194.34;;;15.79;58.22
58967;BME280;44744;51.894;5.080;2022-09-01T02:49:16;102196.17;;;15.78;58.14
58967;BME280;44744;51.894;5.080;2022-09-01T02:50:17;102198.67;;;15.78;58.05
58967;BME280;44744;51.894;5.080;2022-09-01T02:51:20;102199.20;;;15.78;58.04
58967;BME280;44744;51.894;5.080;2022-09-01T02:52:23;102198.70;;;15.77;58.19
58967;BME280;44744;51.894;5.080;2022-09-01T02:53:24;102194.95;;;15.77;58.11
58967;BME280;44744;51.894;5.080;2022-09-01T02:54:28;102194.05;;;15.78;58.25
58967;BME280;44744;51.894;5.080;2022-09-01T02:55:29;102192.54;;;15.76;58.16
58967;BME280;44744;51.894;5.080;2022-09-01T02:56:30;102194.71;;;15.75;58.21
58967;BME280;44744;51.894;5.080;2022-09-01T02:57:30;102192.55;;;15.76;58.22
58967;BME280;44744;51.894;5.080;2022-09-01T02:58:31;102192.14;;;15.77;58.22
58967;BME280;44744;51.894;5.080;2022-09-01T02:59:31;102190.22;;;15.76;58.21
58967;BME280;44744;51.894;5.080;2022-09-01T03:00:31;102191.80;;;15.76;58.26
58967;BME280;44744;51.894;5.080;2022-09-01T03:01:34;102191.48;;;15.76;58.27
58967;BME280;44744;51.894;5.080;2022-09-01T03:02:37;102190.41;;;15.76;58.26
58967;BME280;44744;51.894;5.080;2022-09-01T03:03:38;102189.52;;;15.76;58.30
58967;BME280;44744;51.894;5.080;2022-09-01T03:04:43;102184.71;;;15.75;58.25
58967;BME280;44744;51.894;5.080;2022-09-01T03:05:44;102183.26;;;15.76;58.28
58967;BME280;44744;51.894;5.080;2022-09-01T03:06:45;102185.16;;;15.77;58.26
58967;BME280;44744;51.894;5.080;2022-09-01T03:07:48;102180.87;;;15.77;58.31
58967;BME280;44744;51.894;5.080;2022-09-01T03:08:51;102182.91;;;15.76;58.29
58967;BME280;44744;51.894;5.080;2022-09-01T03:09:51;102179.74;;;15.75;58.34
58967;BME280;44744;51.894;5.080;2022-09-01T03:10:52;102177.05;;;15.76;58.33
58967;BME280;44744;51.894;5.080;2022-09-01T03:11:53;102179.46;;;15.77;58.26
58967;BME280;44744;51.894;5.080;2022-09-01T03:12:53;102179.59;;;15.78;58.31
58967;BME280;44744;51.894;5.080;2022-09-01T03:13:54;102179.61;;;15.77;58.35
58967;BME280;44744;51.894;5.080;2022-09-01T03:14:54;102178.21;;;15.77;58.30
58967;BME280;44744;51.894;5.080;2022-09-01T03:15:54;102177.48;;;15.77;58.31
58967;BME280;44744;51.894;5.080;2022-09-01T03:16:55;102177.48;;;15.77;58.35
58967;BME280;44744;51.894;5.080;2022-09-01T03:17:55;102181.38;;;15.78;58.37
58967;BME280;44744;51.894;5.080;2022-09-01T03:18:57;102181.35;;;15.78;58.38
58967;BME280;44744;51.894;5.080;2022-09-01T03:20:32;102181.88;;;15.78;58.35
58967;BME280;44744;51.894;5.080;2022-09-01T03:21:35;102180.82;;;15.78;58.34
58967;BME280;44744;51.894;5.080;2022-09-01T03:22:36;102182.65;;;15.77;58.40
58967;BME280;44744;51.894;5.080;2022-09-01T03:23:36;102183.89;;;15.78;58.35
58967;BME280;44744;51.894;5.080;2022-09-01T03:24:37;102181.56;;;15.78;58.28
58967;BME280;44744;51.894;5.080;2022-09-01T03:25:37;102180.11;;;15.78;58.32
58967;BME280;44744;51.894;5.080;2022-09-01T03:26:38;102181.39;;;15.77;58.25
58967;BME280;44744;51.894;5.080;2022-09-01T03:27:38;102186.73;;;15.78;58.24
58967;BME280;44744;51.894;5.080;2022-09-01T03:28:42;102183.89;;;15.77;58.25
58967;BME280;44744;51.894;5.080;2022-09-01T03:29:42;102186.16;;;15.79;58.22
58967;BME280;44744;51.894;5.080;2022-09-01T03:30:47;102188.73;;;15.77;58.23
58967;BME280;44744;51.894;5.080;2022-09-01T03:31:47;102187.52;;;15.76;58.20
58967;BME280;44744;51.894;5.080;2022-09-01T03:32:48;102185.29;;;15.75;58.14
58967;BME280;44744;51.894;5.080;2022-09-01T03:33:48;102179.55;;;15.76;58.24
58967;BME280;44744;51.894;5.080;2022-09-01T03:34:48;102179.70;;;15.76;58.19
58967;BME280;44744;51.894;5.080;2022-09-01T03:35:52;102183.91;;;15.77;58.15
58967;BME280;44744;51.894;5.080;2022-09-01T03:36:52;102182.00;;;15.76;58.15
58967;BME280;44744;51.894;5.080;2022-09-01T03:37:57;102184.10;;;15.74;58.09
58967;BME280;44744;51.894;5.080;2022-09-01T03:38:57;102178.48;;;15.72;58.06
58967;BME280;44744;51.894;5.080;2022-09-01T03:39:57;102179.16;;;15.69;58.19
58967;BME280;44744;51.894;5.080;2022-09-01T03:41:01;102181.73;;;15.68;58.17
58967;BME280;44744;51.894;5.080;2022-09-01T03:42:04;102178.39;;;15.67;58.12
58967;BME280;44744;51.894;5.080;2022-09-01T03:43:07;102180.57;;;15.66;58.18
58967;BME280;44744;51.894;5.080;2022-09-01T03:44:12;102180.77;;;15.66;58.14
58967;BME280;44744;51.894;5.080;2022-09-01T03:45:12;102178.17;;;15.65;58.17
58967;BME280;44744;51.894;5.080;2022-09-01T03:46:14;102176.84;;;15.63;58.21
58967;BME280;44744;51.894;5.080;2022-09-01T03:47:17;102178.33;;;15.62;58.21
58967;BME280;44744;51.894;5.080;2022-09-01T03:48:20;102178.07;;;15.60;58.21
58967;BME280;44744;51.894;5.080;2022-09-01T03:49:20;102176.73;;;15.58;58.22
58967;BME280;44744;51.894;5.080;2022-09-01T03:50:23;102175.01;;;15.54;58.23
58967;BME280;44744;51.894;5.080;2022-09-01T03:51:27;102174.41;;;15.52;58.37
58967;BME280;44744;51.894;5.080;2022-09-01T03:52:27;102173.64;;;15.50;58.35
58967;BME280;44744;51.894;5.080;2022-09-01T03:53:31;102173.15;;;15.49;58.44
58967;BME280;44744;51.894;5.080;2022-09-01T03:54:31;102176.42;;;15.48;58.40
58967;BME280;44744;51.894;5.080;2022-09-01T03:55:34;102172.55;;;15.47;58.38
58967;BME280;44744;51.894;5.080;2022-09-01T03:56:35;102171.66;;;15.47;58.48
58967;BME280;44744;51.894;5.080;2022-09-01T03:57:37;102172.25;;;15.46;58.54
58967;BME280;44744;51.894;5.080;2022-09-01T03:58:38;102174.05;;;15.45;58.49
58967;BME280;44744;51.894;5.080;2022-09-01T03:59:38;102175.31;;;15.45;58.56
58967;BME280;44744;51.894;5.080;2022-09-01T04:00:42;102176.83;;;15.44;58.59
58967;BME280;44744;51.894;5.080;2022-09-01T04:01:43;102177.81;;;15.42;58.50
58967;BME280;44744;51.894;5.080;2022-09-01T04:02:44;102178.08;;;15.41;58.65
58967;BME280;44744;51.894;5.080;2022-09-01T04:03:44;102176.92;;;15.39;58.67
58967;BME280;44744;51.894;5.080;2022-09-01T04:04:44;102177.88;;;15.37;58.64
58967;BME280;44744;51.894;5.080;2022-09-01T04:05:45;102179.90;;;15.36;58.67
58967;BME280;44744;51.894;5.080;2022-09-01T04:06:45;102177.92;;;15.36;58.64
58967;BME280;44744;51.894;5.080;2022-09-01T04:07:46;102179.00;;;15.36;58.59
58967;BME280;44744;51.894;5.080;2022-09-01T04:08:47;102174.92;;;15.36;58.58
58967;BME280;44744;51.894;5.080;2022-09-01T04:09:47;102174.60;;;15.35;58.62
58967;BME280;44744;51.894;5.080;2022-09-01T04:10:52;102173.41;;;15.34;58.72
58967;BME280;44744;51.894;5.080;2022-09-01T04:11:53;102170.31;;;15.32;58.58
58967;BME280;44744;51.894;5.080;2022-09-01T04:12:53;102171.92;;;15.32;58.62
58967;BME280;44744;51.894;5.080;2022-09-01T04:13:54;102172.05;;;15.33;58.60
58967;BME280;44744;51.894;5.080;2022-09-01T04:14:54;102170.98;;;15.33;58.61
58967;BME280;44744;51.894;5.080;2022-09-01T04:15:56;102169.23;;;15.32;58.59
58967;BME280;44744;51.894;5.080;2022-09-01T04:16:56;102169.84;;;15.31;58.63
58967;BME280;44744;51.894;5.080;2022-09-01T04:18:03;102172.64;;;15.28;58.65
58967;BME280;44744;51.894;5.080;2022-09-01T04:21:02;102173.30;;;15.23;58.72
58967;BME280;44744;51.894;5.080;2022-09-01T04:22:08;102174.27;;;15.21;58.72
58967;BME280;44744;51.894;5.080;2022-09-01T04:23:08;102174.58;;;15.22;58.77
58967;BME280;44744;51.894;5.080;2022-09-01T04:24:12;102173.66;;;15.23;58.74
58967;BME280;44744;51.894;5.080;2022-09-01T04:25:13;102171.55;;;15.23;58.79
58967;BME280;44744;51.894;5.080;2022-09-01T04:26:21;102174.75;;;15.23;58.84
58967;BME280;44744;51.894;5.080;2022-09-01T04:27:21;102174.42;;;15.22;58.74
58967;BME280;44744;51.894;5.080;2022-09-01T04:28:42;102175.15;;;15.22;58.74
58967;BME280;44744;51.894;5.080;2022-09-01T04:29:43;102177.63;;;15.22;58.64
58967;BME280;44744;51.894;5.080;2022-09-01T04:30:43;102175.88;;;15.21;58.71
58967;BME280;44744;51.894;5.080;2022-09-01T04:32:05;102175.98;;;15.23;58.72
58967;BME280;44744;51.894;5.080;2022-09-01T04:33:06;102178.64;;;15.23;58.68
58967;BME280;44744;51.894;5.080;2022-09-01T04:36:05;102177.89;;;15.20;58.56
58967;BME280;44744;51.894;5.080;2022-09-01T04:38:54;102172.52;;;15.21;58.52
58967;BME280;44744;51.894;5.080;2022-09-01T04:39:55;102180.13;;;15.22;58.54
58967;BME280;44744;51.894;5.080;2022-09-01T04:40:56;102176.55;;;15.22;58.43
58967;BME280;44744;51.894;5.080;2022-09-01T04:42:01;102171.20;;;15.22;58.48
58967;BME280;44744;51.894;5.080;2022-09-01T04:43:01;102173.48;;;15.23;58.44
58967;BME280;44744;51.894;5.080;2022-09-01T04:44:03;102170.84;;;15.22;58.42
58967;BME280;44744;51.894;5.080;2022-09-01T04:45:07;102172.93;;;15.23;58.34
58967;BME280;44744;51.894;5.080;2022-09-01T04:46:10;102174.84;;;15.24;58.25
58967;BME280;44744;51.894;5.080;2022-09-01T04:47:10;102171.51;;;15.23;58.39
58967;BME280;44744;51.894;5.080;2022-09-01T04:48:11;102173.71;;;15.22;58.26
58967;BME280;44744;51.894;5.080;2022-09-01T04:49:17;102168.05;;;15.21;58.26
58967;BME280;44744;51.894;5.080;2022-09-01T04:50:18;102171.23;;;15.21;58.23
58967;BME280;44744;51.894;5.080;2022-09-01T04:51:19;102172.54;;;15.21;58.25
58967;BME280;44744;51.894;5.080;2022-09-01T04:52:19;102173.09;;;15.20;58.11
58967;BME280;44744;51.894;5.080;2022-09-01T04:53:19;102172.20;;;15.20;58.26
58967;BME280;44744;51.894;5.080;2022-09-01T04:54:21;102172.38;;;15.20;58.21
58967;BME280;44744;51.894;5.080;2022-09-01T04:55:25;102175.95;;;15.20;58.23
58967;BME280;44744;51.894;5.080;2022-09-01T04:56:25;102174.02;;;15.19;58.16
58967;BME280;44744;51.894;5.080;2022-09-01T04:57:26;102173.54;;;15.18;58.15
58967;BME280;44744;51.894;5.080;2022-09-01T04:58:26;102176.79;;;15.17;58.11
58967;BME280;44744;51.894;5.080;2022-09-01T04:59:26;102175.65;;;15.16;58.02
58967;BME280;44744;51.894;5.080;2022-09-01T05:00:29;102177.59;;;15.15;58.15
58967;BME280;44744;51.894;5.080;2022-09-01T05:01:29;102175.80;;;15.16;58.14
58967;BME280;44744;51.894;5.080;2022-09-01T05:02:30;102177.49;;;15.14;58.10
58967;BME280;44744;51.894;5.080;2022-09-01T05:03:30;102177.15;;;15.14;58.16
58967;BME280;44744;51.894;5.080;2022-09-01T05:04:31;102175.74;;;15.14;58.13
58967;BME280;44744;51.894;5.080;2022-09-01T05:05:41;102176.09;;;15.14;58.13
58967;BME280;44744;51.894;5.080;2022-09-01T05:06:43;102178.11;;;15.12;58.16
58967;BME280;44744;51.894;5.080;2022-09-01T05:07:44;102181.05;;;15.11;58.11
58967;BME280;44744;51.894;5.080;2022-09-01T05:08:45;102181.11;;;15.10;58.12
58967;BME280;44744;51.894;5.080;2022-09-01T05:09:45;102181.32;;;15.09;58.06
58967;BME280;44744;51.894;5.080;2022-09-01T05:10:50;102181.98;;;15.10;58.09
58967;BME280;44744;51.894;5.080;2022-09-01T05:11:51;102178.39;;;15.11;58.04
58967;BME280;44744;51.894;5.080;2022-09-01T05:12:54;102183.92;;;15.11;58.08
58967;BME280;44744;51.894;5.080;2022-09-01T05:13:54;102182.42;;;15.12;58.07
58967;BME280;44744;51.894;5.080;2022-09-01T05:14:58;102180.85;;;15.12;57.98
58967;BME280;44744;51.894;5.080;2022-09-01T05:16:03;102181.60;;;15.11;58.02
58967;BME280;44744;51.894;5.080;2022-09-01T05:17:07;102181.60;;;15.11;58.05
58967;BME280;44744;51.894;5.080;2022-09-01T05:18:18;102178.98;;;15.10;57.93
58967;BME280;44744;51.894;5.080;2022-09-01T05:19:27;102177.27;;;15.09;58.02
58967;BME280;44744;51.894;5.080;2022-09-01T05:20:37;102181.89;;;15.08;58.11
58967;BME280;44744;51.894;5.080;2022-09-01T05:21:37;102177.67;;;15.08;57.99
58967;BME280;44744;51.894;5.080;2022-09-01T05:22:40;102183.56;;;15.07;58.05
58967;BME280;44744;51.894;5.080;2022-09-01T05:25:24;102176.71;;;15.06;57.87
58967;BME280;44744;51.894;5.080;2022-09-01T05:26:35;102181.06;;;15.04;58.01
58967;BME280;44744;51.894;5.080;2022-09-01T05:27:35;102181.48;;;15.03;57.96
58967;BME280;44744;51.894;5.080;2022-09-01T05:30:17;102180.33;;;15.01;57.97
58967;BME280;44744;51.894;5.080;2022-09-01T05:31:24;102180.73;;;15.00;58.06
58967;BME280;44744;51.894;5.080;2022-09-01T05:32:25;102180.73;;;15.00;58.12
58967;BME280;44744;51.894;5.080;2022-09-01T05:33:26;102182.53;;;15.00;58.12
58967;BME280;44744;51.894;5.080;2022-09-01T05:34:26;102180.64;;;14.99;58.04
58967;BME280;44744;51.894;5.080;2022-09-01T05:35:26;102182.09;;;14.98;58.10
58967;BME280;44744;51.894;5.080;2022-09-01T05:36:27;102182.94;;;14.99;58.19
58967;BME280;44744;51.894;5.080;2022-09-01T05:37:27;102179.38;;;14.99;58.14
58967;BME280;44744;51.894;5.080;2022-09-01T05:38:27;102184.48;;;15.00;58.06
58967;BME280;44744;51.894;5.080;2022-09-01T05:39:51;102183.71;;;15.01;58.06
58967;BME280;44744;51.894;5.080;2022-09-01T05:41:18;102185.20;;;15.04;58.03
58967;BME280;44744;51.894;5.080;2022-09-01T05:42:18;102183.52;;;15.05;58.07
58967;BME280;44744;51.894;5.080;2022-09-01T05:43:31;102184.36;;;15.06;58.03